sensor_id;sensor_type;location;lat;lon;timestamp;P1;durP1;ratioP1;P2;durP2;ratioP2
12469;SDS011;36499;46.484;13.832;2022-08-21T00:02:26;1.10;;;1.00;;
12469;SDS011;36499;46.484;13.832;2022-08-21T00:04:54;1.30;;;1.20;;
12469;SDS011;36499;46.484;13.832;2022-08-21T00:07:21;1.80;;;1.13;;
12469;SDS011;36499;46.484;13.832;2022-08-21T00:09:50;4.60;;;1.20;;
12469;SDS011;36499;46.484;13.832;2022-08-21T00:12:17;1.57;;;1.10;;
12469;SDS011;36499;46.484;13.832;2022-08-21T00:14:45;3.90;;;1.20;;
12469;SDS011;36499;46.484;13.832;2022-08-21T00:17:13;2.50;;;1.00;;
12469;SDS011;36499;46.484;13.832;2022-08-21T00:19:40;3.57;;;1.10;;
12469;SDS011;36499;46.484;13.832;2022-08-21T00:22:07;1.10;;;1.00;;
12469;SDS011;36499;46.484;13.832;2022-08-21T00:24:35;1.20;;;1.10;;
12469;SDS011;36499;46.484;13.832;2022-08-21T00:27:03;1.10;;;0.93;;
12469;SDS011;36499;46.484;13.832;2022-08-21T00:29:30;3.10;;;1.10;;
12469;SDS011;36499;46.484;13.832;2022-08-21T00:31:58;1.17;;;1.10;;
12469;SDS011;36499;46.484;13.832;2022-08-21T00:34:25;1.60;;;1.10;;
12469;SDS011;36499;46.484;13.832;2022-08-21T00:36:52;1.03;;;1.00;;
12469;SDS011;36499;46.484;13.832;2022-08-21T00:39:19;2.03;;;1.00;;
12469;SDS011;36499;46.484;13.832;2022-08-21T00:41:47;2.60;;;1.30;;
12469;SDS011;36499;46.484;13.832;2022-08-21T00:44:15;2.00;;;0.90;;
12469;SDS011;36499;46.484;13.832;2022-08-21T00:46:43;2.03;;;1.10;;
12469;SDS011;36499;46.484;13.832;2022-08-21T00:49:11;1.63;;;1.13;;
12469;SDS011;36499;46.484;13.832;2022-08-21T00:51:40;0.97;;;0.97;;
12469;SDS011;36499;46.484;13.832;2022-08-21T00:54:15;1.47;;;1.00;;
12469;SDS011;36499;46.484;13.832;2022-08-21T00:56:45;3.30;;;1.20;;
12469;SDS011;36499;46.484;13.832;2022-08-21T00:59:17;1.20;;;1.10;;
12469;SDS011;36499;46.484;13.832;2022-08-21T01:01:47;2.37;;;1.10;;
12469;SDS011;36499;46.484;13.832;2022-08-21T01:04:17;1.03;;;0.93;;
12469;SDS011;36499;46.484;13.832;2022-08-21T01:06:45;1.20;;;1.10;;
12469;SDS011;36499;46.484;13.832;2022-08-21T01:09:12;5.83;;;1.10;;
12469;SDS011;36499;46.484;13.832;2022-08-21T01:11:40;2.10;;;1.20;;
12469;SDS011;36499;46.484;13.832;2022-08-21T01:14:08;2.87;;;1.03;;
12469;SDS011;36499;46.484;13.832;2022-08-21T01:16:38;1.33;;;1.10;;
12469;SDS011;36499;46.484;13.832;2022-08-21T01:19:09;2.63;;;1.10;;
12469;SDS011;36499;46.484;13.832;2022-08-21T01:21:38;1.00;;;1.00;;
12469;SDS011;36499;46.484;13.832;2022-08-21T01:24:05;4.17;;;1.00;;
12469;SDS011;36499;46.484;13.832;2022-08-21T01:26:33;1.60;;;1.10;;
12469;SDS011;36499;46.484;13.832;2022-08-21T01:29:03;1.30;;;1.10;;
12469;SDS011;36499;46.484;13.832;2022-08-21T01:31:38;1.77;;;1.00;;
12469;SDS011;36499;46.484;13.832;2022-08-21T01:34:05;3.70;;;1.03;;
12469;SDS011;36499;46.484;13.832;2022-08-21T01:36:34;1.07;;;1.00;;
12469;SDS011;36499;46.484;13.832;2022-08-21T01:39:03;1.53;;;1.00;;
12469;SDS011;36499;46.484;13.832;2022-08-21T01:41:31;2.17;;;1.00;;
12469;SDS011;36499;46.484;13.832;2022-08-21T01:43:58;1.00;;;0.93;;
12469;SDS011;36499;46.484;13.832;2022-08-21T01:46:25;1.10;;;1.00;;
12469;SDS011;36499;46.484;13.832;2022-08-21T01:48:53;2.80;;;1.20;;
12469;SDS011;36499;46.484;13.832;2022-08-21T01:51:20;2.13;;;0.90;;
12469;SDS011;36499;46.484;13.832;2022-08-21T01:53:48;3.50;;;0.90;;
12469;SDS011;36499;46.484;13.832;2022-08-21T01:56:17;1.43;;;1.03;;
12469;SDS011;36499;46.484;13.832;2022-08-21T01:58:45;1.93;;;1.10;;
12469;SDS011;36499;46.484;13.832;2022-08-21T02:01:14;1.20;;;1.00;;
12469;SDS011;36499;46.484;13.832;2022-08-21T02:03:41;2.20;;;1.00;;
12469;SDS011;36499;46.484;13.832;2022-08-21T02:06:12;2.20;;;0.90;;
12469;SDS011;36499;46.484;13.832;2022-08-21T02:08:43;2.50;;;1.10;;
12469;SDS011;36499;46.484;13.832;2022-08-21T02:11:10;2.83;;;1.00;;
12469;SDS011;36499;46.484;13.832;2022-08-21T02:13:39;2.20;;;1.00;;
12469;SDS011;36499;46.484;13.832;2022-08-21T02:16:06;1.10;;;1.00;;
12469;SDS011;36499;46.484;13.832;2022-08-21T02:18:35;1.53;;;1.00;;
12469;SDS011;36499;46.484;13.832;2022-08-21T02:21:03;2.30;;;1.00;;
12469;SDS011;36499;46.484;13.832;2022-08-21T02:23:32;2.80;;;0.97;;
12469;SDS011;36499;46.484;13.832;2022-08-21T02:26:00;1.00;;;1.00;;
12469;SDS011;36499;46.484;13.832;2022-08-21T02:28:31;2.37;;;1.00;;
12469;SDS011;36499;46.484;13.832;2022-08-21T02:31:01;3.90;;;1.00;;
12469;SDS011;36499;46.484;13.832;2022-08-21T02:33:29;1.23;;;1.13;;
12469;SDS011;36499;46.484;13.832;2022-08-21T02:35:57;1.03;;;1.00;;
12469;SDS011;36499;46.484;13.832;2022-08-21T02:38:25;2.67;;;1.10;;
12469;SDS011;36499;46.484;13.832;2022-08-21T02:40:57;2.43;;;1.00;;
12469;SDS011;36499;46.484;13.832;2022-08-21T02:43:26;0.90;;;0.90;;
12469;SDS011;36499;46.484;13.832;2022-08-21T02:45:54;2.53;;;1.20;;
12469;SDS011;36499;46.484;13.832;2022-08-21T02:48:26;0.97;;;0.90;;
12469;SDS011;36499;46.484;13.832;2022-08-21T02:50:56;1.00;;;1.00;;
12469;SDS011;36499;46.484;13.832;2022-08-21T02:53:25;1.73;;;1.00;;
12469;SDS011;36499;46.484;13.832;2022-08-21T02:55:55;1.57;;;0.93;;
12469;SDS011;36499;46.484;13.832;2022-08-21T02:58:27;1.10;;;1.00;;
12469;SDS011;36499;46.484;13.832;2022-08-21T03:00:59;1.87;;;1.30;;
12469;SDS011;36499;46.484;13.832;2022-08-21T03:03:27;4.37;;;1.10;;
12469;SDS011;36499;46.484;13.832;2022-08-21T03:05:55;1.90;;;1.00;;
12469;SDS011;36499;46.484;13.832;2022-08-21T03:08:22;2.77;;;1.07;;
12469;SDS011;36499;46.484;13.832;2022-08-21T03:10:51;1.10;;;1.00;;
12469;SDS011;36499;46.484;13.832;2022-08-21T03:13:19;3.57;;;1.20;;
12469;SDS011;36499;46.484;13.832;2022-08-21T03:15:47;1.10;;;1.00;;
12469;SDS011;36499;46.484;13.832;2022-08-21T03:18:15;5.10;;;1.20;;
12469;SDS011;36499;46.484;13.832;2022-08-21T03:20:45;2.20;;;1.00;;
12469;SDS011;36499;46.484;13.832;2022-08-21T03:23:13;2.77;;;1.07;;
12469;SDS011;36499;46.484;13.832;2022-08-21T03:25:42;1.40;;;1.20;;
12469;SDS011;36499;46.484;13.832;2022-08-21T03:28:12;2.07;;;1.10;;
12469;SDS011;36499;46.484;13.832;2022-08-21T03:30:44;1.10;;;1.00;;
12469;SDS011;36499;46.484;13.832;2022-08-21T03:33:13;1.07;;;0.87;;
12469;SDS011;36499;46.484;13.832;2022-08-21T03:35:42;1.97;;;1.20;;
12469;SDS011;36499;46.484;13.832;2022-08-21T03:38:14;3.17;;;1.10;;
12469;SDS011;36499;46.484;13.832;2022-08-21T03:40:41;4.37;;;1.10;;
12469;SDS011;36499;46.484;13.832;2022-08-21T03:43:09;1.30;;;1.00;;
12469;SDS011;36499;46.484;13.832;2022-08-21T03:45:36;1.40;;;1.30;;
12469;SDS011;36499;46.484;13.832;2022-08-21T03:48:05;2.30;;;1.07;;
12469;SDS011;36499;46.484;13.832;2022-08-21T03:50:36;3.07;;;0.93;;
12469;SDS011;36499;46.484;13.832;2022-08-21T03:53:09;0.83;;;0.83;;
12469;SDS011;36499;46.484;13.832;2022-08-21T03:55:38;2.07;;;1.10;;
12469;SDS011;36499;46.484;13.832;2022-08-21T03:58:06;1.30;;;1.10;;
12469;SDS011;36499;46.484;13.832;2022-08-21T04:00:34;2.70;;;1.03;;
12469;SDS011;36499;46.484;13.832;2022-08-21T04:03:02;1.10;;;0.97;;
12469;SDS011;36499;46.484;13.832;2022-08-21T04:05:29;1.30;;;0.90;;
12469;SDS011;36499;46.484;13.832;2022-08-21T04:07:59;2.10;;;0.80;;
12469;SDS011;36499;46.484;13.832;2022-08-21T04:10:32;3.13;;;1.20;;
12469;SDS011;36499;46.484;13.832;2022-08-21T04:13:02;3.70;;;1.10;;
12469;SDS011;36499;46.484;13.832;2022-08-21T04:15:30;1.70;;;1.00;;
12469;SDS011;36499;46.484;13.832;2022-08-21T04:17:58;3.23;;;1.00;;
12469;SDS011;36499;46.484;13.832;2022-08-21T04:20:25;1.83;;;1.00;;
12469;SDS011;36499;46.484;13.832;2022-08-21T04:22:53;4.33;;;0.93;;
12469;SDS011;36499;46.484;13.832;2022-08-21T04:25:21;1.57;;;1.10;;
12469;SDS011;36499;46.484;13.832;2022-08-21T04:27:51;1.53;;;1.10;;
12469;SDS011;36499;46.484;13.832;2022-08-21T04:30:19;3.17;;;1.00;;
12469;SDS011;36499;46.484;13.832;2022-08-21T04:32:47;2.47;;;1.00;;
12469;SDS011;36499;46.484;13.832;2022-08-21T04:35:17;2.77;;;1.00;;
12469;SDS011;36499;46.484;13.832;2022-08-21T04:37:46;2.03;;;0.80;;
12469;SDS011;36499;46.484;13.832;2022-08-21T04:40:15;0.90;;;0.90;;
12469;SDS011;36499;46.484;13.832;2022-08-21T04:42:45;1.00;;;0.90;;
12469;SDS011;36499;46.484;13.832;2022-08-21T04:45:20;0.77;;;0.77;;
12469;SDS011;36499;46.484;13.832;2022-08-21T04:47:50;0.80;;;0.80;;
12469;SDS011;36499;46.484;13.832;2022-08-21T04:50:19;4.17;;;0.90;;
12469;SDS011;36499;46.484;13.832;2022-08-21T04:52:50;1.03;;;0.97;;
12469;SDS011;36499;46.484;13.832;2022-08-21T04:55:18;1.60;;;0.90;;
12469;SDS011;36499;46.484;13.832;2022-08-21T04:57:48;2.13;;;1.00;;
12469;SDS011;36499;46.484;13.832;2022-08-21T05:00:19;2.23;;;1.00;;
12469;SDS011;36499;46.484;13.832;2022-08-21T05:02:49;1.00;;;0.90;;
12469;SDS011;36499;46.484;13.832;2022-08-21T05:05:21;1.17;;;0.97;;
12469;SDS011;36499;46.484;13.832;2022-08-21T05:07:48;4.73;;;0.90;;
12469;SDS011;36499;46.484;13.832;2022-08-21T05:10:17;0.80;;;0.80;;
12469;SDS011;36499;46.484;13.832;2022-08-21T05:12:44;2.00;;;1.00;;
12469;SDS011;36499;46.484;13.832;2022-08-21T05:15:12;1.77;;;0.93;;
12469;SDS011;36499;46.484;13.832;2022-08-21T05:17:40;1.33;;;0.90;;
12469;SDS011;36499;46.484;13.832;2022-08-21T05:20:08;0.90;;;0.90;;
12469;SDS011;36499;46.484;13.832;2022-08-21T05:22:37;2.27;;;1.07;;
12469;SDS011;36499;46.484;13.832;2022-08-21T05:25:05;4.10;;;1.00;;
12469;SDS011;36499;46.484;13.832;2022-08-21T05:27:34;1.93;;;0.90;;
12469;SDS011;36499;46.484;13.832;2022-08-21T05:30:02;1.20;;;0.90;;
12469;SDS011;36499;46.484;13.832;2022-08-21T05:32:32;1.10;;;0.93;;
12469;SDS011;36499;46.484;13.832;2022-08-21T05:35:01;2.47;;;1.27;;
12469;SDS011;36499;46.484;13.832;2022-08-21T05:37:29;1.40;;;0.87;;
12469;SDS011;36499;46.484;13.832;2022-08-21T05:39:57;2.47;;;0.97;;
12469;SDS011;36499;46.484;13.832;2022-08-21T05:42:25;0.93;;;0.90;;
12469;SDS011;36499;46.484;13.832;2022-08-21T05:44:52;1.23;;;1.00;;
12469;SDS011;36499;46.484;13.832;2022-08-21T05:47:19;4.00;;;1.10;;
12469;SDS011;36499;46.484;13.832;2022-08-21T05:49:47;2.90;;;1.17;;
12469;SDS011;36499;46.484;13.832;2022-08-21T05:52:19;2.13;;;1.30;;
12469;SDS011;36499;46.484;13.832;2022-08-21T05:54:47;4.40;;;0.97;;
12469;SDS011;36499;46.484;13.832;2022-08-21T05:57:18;1.70;;;1.03;;
12469;SDS011;36499;46.484;13.832;2022-08-21T05:59:46;1.37;;;1.00;;
12469;SDS011;36499;46.484;13.832;2022-08-21T06:02:13;1.07;;;0.97;;
12469;SDS011;36499;46.484;13.832;2022-08-21T06:04:43;1.93;;;1.10;;
12469;SDS011;36499;46.484;13.832;2022-08-21T06:07:10;0.93;;;0.80;;
12469;SDS011;36499;46.484;13.832;2022-08-21T06:09:38;1.50;;;0.90;;
12469;SDS011;36499;46.484;13.832;2022-08-21T06:12:06;1.10;;;1.00;;
12469;SDS011;36499;46.484;13.832;2022-08-21T06:14:37;1.30;;;0.80;;
12469;SDS011;36499;46.484;13.832;2022-08-21T06:17:07;2.10;;;0.93;;
12469;SDS011;36499;46.484;13.832;2022-08-21T06:19:37;1.10;;;1.00;;
12469;SDS011;36499;46.484;13.832;2022-08-21T06:22:04;1.60;;;1.10;;
12469;SDS011;36499;46.484;13.832;2022-08-21T06:24:32;1.27;;;0.87;;
12469;SDS011;36499;46.484;13.832;2022-08-21T06:27:04;1.43;;;1.20;;
12469;SDS011;36499;46.484;13.832;2022-08-21T06:29:35;1.30;;;1.20;;
12469;SDS011;36499;46.484;13.832;2022-08-21T06:32:03;2.10;;;1.00;;
12469;SDS011;36499;46.484;13.832;2022-08-21T06:34:35;0.93;;;0.90;;
12469;SDS011;36499;46.484;13.832;2022-08-21T06:37:04;0.90;;;0.90;;
12469;SDS011;36499;46.484;13.832;2022-08-21T06:39:32;0.90;;;0.90;;
12469;SDS011;36499;46.484;13.832;2022-08-21T06:42:00;1.63;;;1.00;;
12469;SDS011;36499;46.484;13.832;2022-08-21T06:44:28;0.80;;;0.80;;
12469;SDS011;36499;46.484;13.832;2022-08-21T06:46:56;2.23;;;1.00;;
12469;SDS011;36499;46.484;13.832;2022-08-21T06:49:24;6.97;;;1.10;;
12469;SDS011;36499;46.484;13.832;2022-08-21T06:51:51;1.70;;;1.00;;
12469;SDS011;36499;46.484;13.832;2022-08-21T06:54:18;3.37;;;1.10;;
12469;SDS011;36499;46.484;13.832;2022-08-21T06:56:45;1.37;;;1.00;;
12469;SDS011;36499;46.484;13.832;2022-08-21T06:59:12;2.80;;;0.90;;
12469;SDS011;36499;46.484;13.832;2022-08-21T07:01:40;1.47;;;0.80;;
12469;SDS011;36499;46.484;13.832;2022-08-21T07:04:08;1.13;;;0.90;;
12469;SDS011;36499;46.484;13.832;2022-08-21T07:06:35;0.80;;;0.80;;
12469;SDS011;36499;46.484;13.832;2022-08-21T07:09:02;1.73;;;1.03;;
12469;SDS011;36499;46.484;13.832;2022-08-21T07:11:30;2.20;;;0.80;;
12469;SDS011;36499;46.484;13.832;2022-08-21T07:13:57;0.63;;;0.63;;
12469;SDS011;36499;46.484;13.832;2022-08-21T07:16:24;2.93;;;1.07;;
12469;SDS011;36499;46.484;13.832;2022-08-21T07:18:53;0.77;;;0.77;;
12469;SDS011;36499;46.484;13.832;2022-08-21T07:21:20;0.80;;;0.70;;
12469;SDS011;36499;46.484;13.832;2022-08-21T07:23:48;0.80;;;0.80;;
12469;SDS011;36499;46.484;13.832;2022-08-21T07:26:18;0.80;;;0.80;;
12469;SDS011;36499;46.484;13.832;2022-08-21T07:28:48;0.70;;;0.70;;
12469;SDS011;36499;46.484;13.832;2022-08-21T07:31:17;0.80;;;0.80;;
12469;SDS011;36499;46.484;13.832;2022-08-21T07:33:48;1.27;;;1.00;;
12469;SDS011;36499;46.484;13.832;2022-08-21T07:36:16;0.77;;;0.77;;
12469;SDS011;36499;46.484;13.832;2022-08-21T07:38:44;0.60;;;0.60;;
12469;SDS011;36499;46.484;13.832;2022-08-21T07:41:13;0.87;;;0.87;;
12469;SDS011;36499;46.484;13.832;2022-08-21T07:43:45;2.40;;;1.00;;
12469;SDS011;36499;46.484;13.832;2022-08-21T07:46:13;0.70;;;0.70;;
12469;SDS011;36499;46.484;13.832;2022-08-21T07:48:40;0.83;;;0.73;;
12469;SDS011;36499;46.484;13.832;2022-08-21T07:51:13;0.70;;;0.70;;
12469;SDS011;36499;46.484;13.832;2022-08-21T07:53:47;0.60;;;0.60;;
12469;SDS011;36499;46.484;13.832;2022-08-21T07:56:15;0.73;;;0.73;;
12469;SDS011;36499;46.484;13.832;2022-08-21T07:58:42;1.50;;;0.80;;
12469;SDS011;36499;46.484;13.832;2022-08-21T08:01:09;0.77;;;0.77;;
12469;SDS011;36499;46.484;13.832;2022-08-21T08:03:37;1.17;;;0.90;;
12469;SDS011;36499;46.484;13.832;2022-08-21T08:06:04;3.57;;;1.10;;
12469;SDS011;36499;46.484;13.832;2022-08-21T08:08:37;1.00;;;0.90;;
12469;SDS011;36499;46.484;13.832;2022-08-21T08:11:05;3.50;;;0.77;;
12469;SDS011;36499;46.484;13.832;2022-08-21T08:13:37;0.70;;;0.70;;
12469;SDS011;36499;46.484;13.832;2022-08-21T08:16:05;0.70;;;0.70;;
12469;SDS011;36499;46.484;13.832;2022-08-21T08:18:33;0.50;;;0.50;;
12469;SDS011;36499;46.484;13.832;2022-08-21T08:21:01;0.60;;;0.60;;
12469;SDS011;36499;46.484;13.832;2022-08-21T08:23:28;0.63;;;0.63;;
12469;SDS011;36499;46.484;13.832;2022-08-21T08:25:57;0.60;;;0.60;;
12469;SDS011;36499;46.484;13.832;2022-08-21T08:28:24;0.83;;;0.60;;
12469;SDS011;36499;46.484;13.832;2022-08-21T08:30:52;0.60;;;0.60;;
12469;SDS011;36499;46.484;13.832;2022-08-21T08:33:19;0.70;;;0.70;;
12469;SDS011;36499;46.484;13.832;2022-08-21T08:35:48;0.80;;;0.80;;
12469;SDS011;36499;46.484;13.832;2022-08-21T08:38:18;0.70;;;0.70;;
12469;SDS011;36499;46.484;13.832;2022-08-21T08:40:50;0.70;;;0.70;;
12469;SDS011;36499;46.484;13.832;2022-08-21T08:43:27;0.80;;;0.80;;
12469;SDS011;36499;46.484;13.832;2022-08-21T08:45:56;0.90;;;0.90;;
12469;SDS011;36499;46.484;13.832;2022-08-21T08:48:31;1.43;;;0.80;;
12469;SDS011;36499;46.484;13.832;2022-08-21T08:51:13;1.00;;;0.90;;
12469;SDS011;36499;46.484;13.832;2022-08-21T08:53:49;0.97;;;0.90;;
12469;SDS011;36499;46.484;13.832;2022-08-21T08:56:26;0.80;;;0.80;;
12469;SDS011;36499;46.484;13.832;2022-08-21T08:58:58;1.30;;;1.00;;
12469;SDS011;36499;46.484;13.832;2022-08-21T09:01:34;1.07;;;1.07;;
12469;SDS011;36499;46.484;13.832;2022-08-21T09:04:02;0.93;;;0.90;;
12469;SDS011;36499;46.484;13.832;2022-08-21T09:09:41;1.00;;;1.00;;
12469;SDS011;36499;46.484;13.832;2022-08-21T09:12:32;0.97;;;0.97;;
12469;SDS011;36499;46.484;13.832;2022-08-21T09:15:13;1.67;;;1.30;;
12469;SDS011;36499;46.484;13.832;2022-08-21T09:17:55;1.27;;;1.10;;
12469;SDS011;36499;46.484;13.832;2022-08-21T09:20:40;1.57;;;1.10;;
12469;SDS011;36499;46.484;13.832;2022-08-21T09:23:22;1.27;;;1.00;;
12469;SDS011;36499;46.484;13.832;2022-08-21T09:26:04;1.33;;;0.90;;
12469;SDS011;36499;46.484;13.832;2022-08-21T09:28:40;1.20;;;1.10;;
12469;SDS011;36499;46.484;13.832;2022-08-21T09:31:12;1.47;;;1.23;;
12469;SDS011;36499;46.484;13.832;2022-08-21T09:33:48;1.30;;;0.93;;
12469;SDS011;36499;46.484;13.832;2022-08-21T09:36:22;1.33;;;1.23;;
12469;SDS011;36499;46.484;13.832;2022-08-21T09:39:00;1.40;;;1.30;;
12469;SDS011;36499;46.484;13.832;2022-08-21T09:41:28;1.00;;;1.00;;
12469;SDS011;36499;46.484;13.832;2022-08-21T09:44:01;1.70;;;1.07;;
12469;SDS011;36499;46.484;13.832;2022-08-21T09:46:30;1.47;;;1.10;;
12469;SDS011;36499;46.484;13.832;2022-08-21T09:48:58;1.00;;;1.00;;
12469;SDS011;36499;46.484;13.832;2022-08-21T09:51:29;2.07;;;1.20;;
12469;SDS011;36499;46.484;13.832;2022-08-21T09:54:10;2.70;;;1.30;;
12469;SDS011;36499;46.484;13.832;2022-08-21T09:56:51;1.30;;;1.13;;
12469;SDS011;36499;46.484;13.832;2022-08-21T09:59:42;1.03;;;1.03;;
12469;SDS011;36499;46.484;13.832;2022-08-21T10:02:20;3.40;;;1.30;;
12469;SDS011;36499;46.484;13.832;2022-08-21T10:04:54;1.83;;;1.23;;
12469;SDS011;36499;46.484;13.832;2022-08-21T10:07:25;4.10;;;1.30;;
12469;SDS011;36499;46.484;13.832;2022-08-21T10:09:58;1.00;;;1.00;;
12469;SDS011;36499;46.484;13.832;2022-08-21T10:12:31;1.20;;;1.10;;
12469;SDS011;36499;46.484;13.832;2022-08-21T10:15:13;5.10;;;1.10;;
12469;SDS011;36499;46.484;13.832;2022-08-21T10:18:06;1.20;;;1.10;;
12469;SDS011;36499;46.484;13.832;2022-08-21T10:20:45;1.30;;;1.20;;
12469;SDS011;36499;46.484;13.832;2022-08-21T10:23:41;1.60;;;1.20;;
12469;SDS011;36499;46.484;13.832;2022-08-21T10:26:28;2.23;;;1.50;;
12469;SDS011;36499;46.484;13.832;2022-08-21T10:29:37;1.63;;;1.23;;
12469;SDS011;36499;46.484;13.832;2022-08-21T10:32:20;1.93;;;1.30;;
12469;SDS011;36499;46.484;13.832;2022-08-21T10:35:24;1.30;;;1.20;;
12469;SDS011;36499;46.484;13.832;2022-08-21T10:38:00;1.40;;;1.30;;
12469;SDS011;36499;46.484;13.832;2022-08-21T10:41:11;1.30;;;1.20;;
12469;SDS011;36499;46.484;13.832;2022-08-21T10:43:52;1.37;;;1.27;;
12469;SDS011;36499;46.484;13.832;2022-08-21T10:46:40;1.33;;;1.23;;
12469;SDS011;36499;46.484;13.832;2022-08-21T10:49:21;1.73;;;1.40;;
12469;SDS011;36499;46.484;13.832;2022-08-21T10:52:02;1.43;;;1.33;;
12469;SDS011;36499;46.484;13.832;2022-08-21T10:55:02;1.53;;;1.40;;
12469;SDS011;36499;46.484;13.832;2022-08-21T10:57:39;1.63;;;1.30;;
12469;SDS011;36499;46.484;13.832;2022-08-21T11:00:15;4.57;;;1.23;;
12469;SDS011;36499;46.484;13.832;2022-08-21T11:02:47;1.50;;;1.37;;
12469;SDS011;36499;46.484;13.832;2022-08-21T11:05:25;1.30;;;1.20;;
12469;SDS011;36499;46.484;13.832;2022-08-21T11:08:01;1.47;;;1.30;;
12469;SDS011;36499;46.484;13.832;2022-08-21T11:10:34;1.30;;;1.20;;
12469;SDS011;36499;46.484;13.832;2022-08-21T11:13:10;1.33;;;1.23;;
12469;SDS011;36499;46.484;13.832;2022-08-21T11:15:45;1.40;;;1.30;;
12469;SDS011;36499;46.484;13.832;2022-08-21T11:18:22;1.30;;;1.20;;
12469;SDS011;36499;46.484;13.832;2022-08-21T11:21:02;1.37;;;1.27;;
12469;SDS011;36499;46.484;13.832;2022-08-21T11:23:47;2.97;;;1.23;;
12469;SDS011;36499;46.484;13.832;2022-08-21T11:26:24;2.57;;;1.23;;
12469;SDS011;36499;46.484;13.832;2022-08-21T11:29:04;3.27;;;1.30;;
12469;SDS011;36499;46.484;13.832;2022-08-21T11:31:49;2.13;;;1.93;;
12469;SDS011;36499;46.484;13.832;2022-08-21T11:34:42;1.30;;;1.20;;
12469;SDS011;36499;46.484;13.832;2022-08-21T11:37:28;2.50;;;2.30;;
12469;SDS011;36499;46.484;13.832;2022-08-21T11:40:24;4.47;;;4.07;;
12469;SDS011;36499;46.484;13.832;2022-08-21T11:43:10;1.80;;;1.60;;
12469;SDS011;36499;46.484;13.832;2022-08-21T11:45:49;1.30;;;1.20;;
12469;SDS011;36499;46.484;13.832;2022-08-21T11:48:25;3.50;;;1.70;;
12469;SDS011;36499;46.484;13.832;2022-08-21T11:51:07;1.33;;;1.23;;
12469;SDS011;36499;46.484;13.832;2022-08-21T11:53:44;1.40;;;1.30;;
12469;SDS011;36499;46.484;13.832;2022-08-21T11:56:31;1.53;;;1.23;;
12469;SDS011;36499;46.484;13.832;2022-08-21T11:59:06;1.40;;;1.27;;
12469;SDS011;36499;46.484;13.832;2022-08-21T12:01:45;1.30;;;1.20;;
12469;SDS011;36499;46.484;13.832;2022-08-21T12:04:19;1.23;;;1.13;;
12469;SDS011;36499;46.484;13.832;2022-08-21T12:06:55;1.40;;;1.20;;
12469;SDS011;36499;46.484;13.832;2022-08-21T12:09:37;1.40;;;1.30;;
12469;SDS011;36499;46.484;13.832;2022-08-21T12:12:06;2.47;;;1.50;;
12469;SDS011;36499;46.484;13.832;2022-08-21T12:14:49;1.30;;;1.20;;
12469;SDS011;36499;46.484;13.832;2022-08-21T12:17:34;1.30;;;1.20;;
12469;SDS011;36499;46.484;13.832;2022-08-21T12:20:14;1.67;;;1.57;;
12469;SDS011;36499;46.484;13.832;2022-08-21T12:22:51;1.30;;;1.20;;
12469;SDS011;36499;46.484;13.832;2022-08-21T12:25:36;1.90;;;1.50;;
12469;SDS011;36499;46.484;13.832;2022-08-21T12:28:06;1.20;;;1.10;;
12469;SDS011;36499;46.484;13.832;2022-08-21T12:30:39;1.20;;;1.10;;
12469;SDS011;36499;46.484;13.832;2022-08-21T12:33:18;2.93;;;1.20;;
12469;SDS011;36499;46.484;13.832;2022-08-21T12:35:52;1.13;;;1.03;;
12469;SDS011;36499;46.484;13.832;2022-08-21T12:38:32;2.47;;;2.27;;
12469;SDS011;36499;46.484;13.832;2022-08-21T12:41:16;1.30;;;1.20;;
12469;SDS011;36499;46.484;13.832;2022-08-21T12:43:50;2.80;;;1.30;;
12469;SDS011;36499;46.484;13.832;2022-08-21T12:46:26;1.30;;;1.20;;
12469;SDS011;36499;46.484;13.832;2022-08-21T12:49:03;2.03;;;1.20;;
12469;SDS011;36499;46.484;13.832;2022-08-21T12:51:45;1.30;;;1.20;;
12469;SDS011;36499;46.484;13.832;2022-08-21T12:54:24;2.03;;;1.40;;
12469;SDS011;36499;46.484;13.832;2022-08-21T12:57:00;1.33;;;1.23;;
12469;SDS011;36499;46.484;13.832;2022-08-21T12:59:29;1.30;;;1.20;;
12469;SDS011;36499;46.484;13.832;2022-08-21T13:01:58;1.30;;;1.20;;
12469;SDS011;36499;46.484;13.832;2022-08-21T13:04:34;1.57;;;1.20;;
12469;SDS011;36499;46.484;13.832;2022-08-21T13:07:05;1.40;;;1.30;;
12469;SDS011;36499;46.484;13.832;2022-08-21T13:09:39;1.50;;;1.40;;
12469;SDS011;36499;46.484;13.832;2022-08-21T13:12:14;2.00;;;1.23;;
12469;SDS011;36499;46.484;13.832;2022-08-21T13:14:46;1.80;;;1.30;;
12469;SDS011;36499;46.484;13.832;2022-08-21T13:17:17;2.60;;;1.20;;
12469;SDS011;36499;46.484;13.832;2022-08-21T13:19:52;1.40;;;1.30;;
12469;SDS011;36499;46.484;13.832;2022-08-21T13:22:25;2.30;;;1.30;;
12469;SDS011;36499;46.484;13.832;2022-08-21T13:24:54;1.50;;;1.30;;
12469;SDS011;36499;46.484;13.832;2022-08-21T13:27:24;1.50;;;1.40;;
12469;SDS011;36499;46.484;13.832;2022-08-21T13:30:05;3.00;;;1.60;;
12469;SDS011;36499;46.484;13.832;2022-08-21T13:32:38;1.20;;;1.10;;
12469;SDS011;36499;46.484;13.832;2022-08-21T13:35:12;2.43;;;1.30;;
12469;SDS011;36499;46.484;13.832;2022-08-21T13:37:43;1.30;;;1.20;;
12469;SDS011;36499;46.484;13.832;2022-08-21T13:40:14;1.90;;;1.40;;
12469;SDS011;36499;46.484;13.832;2022-08-21T13:42:47;2.97;;;1.50;;
12469;SDS011;36499;46.484;13.832;2022-08-21T13:45:17;1.40;;;1.30;;
12469;SDS011;36499;46.484;13.832;2022-08-21T13:47:50;1.30;;;1.20;;
12469;SDS011;36499;46.484;13.832;2022-08-21T13:50:20;1.47;;;1.30;;
12469;SDS011;36499;46.484;13.832;2022-08-21T13:52:55;2.37;;;1.60;;
12469;SDS011;36499;46.484;13.832;2022-08-21T13:55:33;1.47;;;1.37;;
12469;SDS011;36499;46.484;13.832;2022-08-21T13:58:05;1.50;;;1.40;;
12469;SDS011;36499;46.484;13.832;2022-08-21T14:00:33;1.60;;;1.50;;
12469;SDS011;36499;46.484;13.832;2022-08-21T14:03:09;2.27;;;1.53;;
12469;SDS011;36499;46.484;13.832;2022-08-21T14:05:43;1.40;;;1.30;;
12469;SDS011;36499;46.484;13.832;2022-08-21T14:08:13;1.43;;;1.33;;
12469;SDS011;36499;46.484;13.832;2022-08-21T14:10:50;1.40;;;1.30;;
12469;SDS011;36499;46.484;13.832;2022-08-21T14:13:27;1.90;;;1.67;;
12469;SDS011;36499;46.484;13.832;2022-08-21T14:16:03;1.97;;;1.67;;
12469;SDS011;36499;46.484;13.832;2022-08-21T14:18:44;1.40;;;1.27;;
12469;SDS011;36499;46.484;13.832;2022-08-21T14:21:29;1.73;;;1.40;;
12469;SDS011;36499;46.484;13.832;2022-08-21T14:23:59;2.80;;;1.40;;
12469;SDS011;36499;46.484;13.832;2022-08-21T14:26:34;1.67;;;1.47;;
12469;SDS011;36499;46.484;13.832;2022-08-21T14:29:11;3.93;;;1.60;;
12469;SDS011;36499;46.484;13.832;2022-08-21T14:31:42;1.70;;;1.60;;
12469;SDS011;36499;46.484;13.832;2022-08-21T14:34:15;1.97;;;1.40;;
12469;SDS011;36499;46.484;13.832;2022-08-21T14:36:43;1.60;;;1.50;;
12469;SDS011;36499;46.484;13.832;2022-08-21T14:39:10;1.70;;;1.40;;
12469;SDS011;36499;46.484;13.832;2022-08-21T14:41:37;1.60;;;1.50;;
12469;SDS011;36499;46.484;13.832;2022-08-21T14:44:04;1.47;;;1.37;;
12469;SDS011;36499;46.484;13.832;2022-08-21T14:46:35;1.50;;;1.40;;
12469;SDS011;36499;46.484;13.832;2022-08-21T14:49:02;2.60;;;1.50;;
12469;SDS011;36499;46.484;13.832;2022-08-21T14:51:30;1.70;;;1.60;;
12469;SDS011;36499;46.484;13.832;2022-08-21T14:53:57;2.73;;;1.60;;
12469;SDS011;36499;46.484;13.832;2022-08-21T14:56:25;3.13;;;1.43;;
12469;SDS011;36499;46.484;13.832;2022-08-21T14:58:52;1.53;;;1.30;;
12469;SDS011;36499;46.484;13.832;2022-08-21T15:01:31;1.93;;;1.70;;
12469;SDS011;36499;46.484;13.832;2022-08-21T15:04:03;1.50;;;1.40;;
12469;SDS011;36499;46.484;13.832;2022-08-21T15:06:30;1.93;;;1.40;;